Time;durP1;ratioP1;P1;durP2;ratioP2;P2;SDS_P1;SDS_P2;PMS_P1;PMS_P2;Temp;Humidity;BMP_temperature;BMP_pressure;BME280_temperature;BME280_humidity;BME280_pressure;Samples;Min_cycle;Max_cycle;Signal;HPM_P1;HPM_P2
2021/08/05 00:01:53;;;;;;;56.35;33.20;;;;;;;15.12;100.00;101164.66;5213781;28;20025;-78
2021/08/05 00:04:23;;;;;;;62.50;36.80;;;;;;;15.10;100.00;101160.47;5213087;28;20029;-78
2021/08/05 00:06:54;;;;;;;58.60;35.72;;;;;;;15.08;100.00;101149.00;5226352;28;20116;-79
2021/08/05 00:09:24;;;;;;;59.42;34.05;;;;;;;15.08;100.00;101162.53;5226153;28;20031;-79
2021/08/05 00:11:55;;;;;;;62.90;37.47;;;;;;;15.08;100.00;101159.81;5226521;28;20025;-79
2021/08/05 00:14:25;;;;;;;54.55;33.17;;;;;;;15.09;100.00;101145.28;5226503;28;20036;-79
2021/08/05 00:16:56;;;;;;;52.40;31.85;;;;;;;15.09;100.00;101151.53;5226397;28;20029;-78
2021/08/05 00:19:26;;;;;;;59.58;37.03;;;;;;;15.09;100.00;101146.13;5220511;28;20029;-79
2021/08/05 00:21:57;;;;;;;56.35;34.30;;;;;;;15.07;100.00;101141.94;5218159;28;20028;-79
2021/08/05 00:24:27;;;;;;;54.20;33.38;;;;;;;15.04;100.00;101137.75;5226094;28;20021;-78
2021/08/05 00:26:58;;;;;;;57.22;35.22;;;;;;;15.01;100.00;101143.53;5226140;28;20417;-78
2021/08/05 00:29:29;;;;;;;56.78;33.97;;;;;;;15.00;100.00;101141.84;5226010;28;20033;-78
2021/08/05 00:31:59;;;;;;;56.30;33.75;;;;;;;14.96;100.00;101140.53;5226116;28;20056;-79
2021/08/05 00:34:30;;;;;;;59.80;34.20;;;;;;;14.91;100.00;101145.66;5226153;28;20033;-79
2021/08/05 00:37:00;;;;;;;58.40;35.08;;;;;;;14.86;100.00;101138.16;5225866;28;20017;-78
2021/08/05 00:39:30;;;;;;;62.72;36.90;;;;;;;14.81;100.00;101137.00;5225898;28;20492;-78
2021/08/05 00:42:01;;;;;;;66.18;38.63;;;;;;;14.76;100.00;101130.31;5225920;28;20040;-79
2021/08/05 00:44:33;;;;;;;67.30;37.53;;;;;;;14.73;100.00;101129.84;5225955;28;20017;-79
2021/08/05 00:47:05;;;;;;;68.03;40.30;;;;;;;14.70;100.00;101130.22;5233147;28;20033;-79
2021/08/05 00:49:36;;;;;;;74.28;41.60;;;;;;;14.64;100.00;101128.25;5240326;28;20509;-78
2021/08/05 00:52:07;;;;;;;69.35;40.58;;;;;;;14.62;100.00;101127.63;5232032;28;20032;-79
2021/08/05 00:54:38;;;;;;;70.85;41.55;;;;;;;14.59;100.00;101130.69;5231603;28;20025;-79
2021/08/05 00:57:08;;;;;;;69.75;37.97;;;;;;;14.56;100.00;101131.03;5231629;28;20513;-79
2021/08/05 00:59:39;;;;;;;63.58;37.10;;;;;;;14.57;100.00;101125.47;5217988;28;20288;-79
2021/08/05 01:02:16;;;;;;;71.63;38.28;;;;;;;14.55;100.00;101127.50;5231777;28;20033;-79
2021/08/05 01:04:51;;;;;;;69.07;39.45;;;;;;;14.54;100.00;101125.84;5218535;28;20047;-79
2021/08/05 01:07:36;;;;;;;63.60;34.50;;;;;;;14.55;100.00;101119.41;5231500;28;20029;-77
2021/08/05 01:10:13;;;;;;;66.32;38.67;;;;;;;14.52;100.00;101117.09;5211373;28;20095;-79
2021/08/05 01:12:51;;;;;;;59.10;34.20;;;;;;;14.49;100.00;101125.56;5228348;28;20025;-79
2021/08/05 01:15:25;;;;;;;63.00;37.00;;;;;;;14.46;100.00;101117.81;5232267;28;20429;-79
2021/08/05 01:18:05;;;;;;;68.30;38.88;;;;;;;14.42;100.00;101116.50;5218529;28;20409;-79
2021/08/05 01:20:38;;;;;;;73.05;38.40;;;;;;;14.35;100.00;101113.69;5232184;28;20014;-79
2021/08/05 01:23:29;;;;;;;71.00;37.30;;;;;;;14.31;100.00;101111.53;5221555;28;20021;-79
2021/08/05 01:26:28;;;;;;;72.70;38.45;;;;;;;14.20;100.00;101108.25;5210435;28;20029;-79
2021/08/05 01:29:00;;;;;;;71.68;38.72;;;;;;;14.15;100.00;101116.06;5229087;28;20025;-77
2021/08/05 01:31:33;;;;;;;65.05;37.28;;;;;;;14.08;100.00;101108.91;5233212;28;20084;-79
2021/08/05 01:34:04;;;;;;;80.72;41.30;;;;;;;14.03;100.00;101104.06;5231775;28;20024;-78
2021/08/05 01:36:34;;;;;;;77.90;40.33;;;;;;;13.97;100.00;101102.94;5232268;28;20100;-78
2021/08/05 01:39:05;;;;;;;75.57;39.90;;;;;;;13.94;100.00;101105.97;5232558;28;20033;-77
2021/08/05 01:41:38;;;;;;;70.38;40.05;;;;;;;13.89;100.00;101099.44;5231246;28;20023;-78
2021/08/05 01:44:11;;;;;;;74.50;40.03;;;;;;;13.80;100.00;101097.84;5221610;28;20017;-78
2021/08/05 01:46:42;;;;;;;60.00;33.40;;;;;;;13.77;100.00;101090.13;5232897;28;20382;-79
2021/08/05 01:49:15;;;;;;;63.25;34.10;;;;;;;13.73;100.00;101092.34;5231956;28;20025;-79
2021/08/05 01:51:48;;;;;;;60.42;32.83;;;;;;;13.69;100.00;101088.31;5232949;28;20024;-79
2021/08/05 01:54:19;;;;;;;65.85;37.50;;;;;;;13.67;100.00;101085.81;5232212;28;20024;-78
2021/08/05 01:56:50;;;;;;;83.05;41.05;;;;;;;13.69;100.00;101089.16;5225017;28;20040;-79
2021/08/05 01:59:20;;;;;;;79.25;41.17;;;;;;;13.71;100.00;101083.59;5225657;28;20024;-79
2021/08/05 02:01:51;;;;;;;63.97;35.42;;;;;;;13.72;100.00;101077.19;5232008;28;20029;-79
2021/08/05 02:04:43;;;;;;;75.88;40.10;;;;;;;13.78;100.00;101081.84;5218940;28;20029;-78
2021/08/05 02:07:21;;;;;;;76.93;41.00;;;;;;;13.79;100.00;101080.81;5232442;28;20057;-79
2021/08/05 02:09:58;;;;;;;70.25;39.08;;;;;;;13.82;100.00;101079.63;5231461;28;20092;-77
2021/08/05 02:12:32;;;;;;;70.53;37.47;;;;;;;13.81;100.00;101075.28;5232717;28;20047;-79
2021/08/05 02:15:04;;;;;;;66.38;37.65;;;;;;;13.80;100.00;101076.25;5231475;28;20056;-79
2021/08/05 02:17:39;;;;;;;74.47;38.28;;;;;;;13.81;100.00;101067.19;5232179;28;20025;-79
2021/08/05 02:20:12;;;;;;;67.63;37.60;;;;;;;13.83;100.00;101067.81;5231306;28;20036;-78
2021/08/05 02:22:45;;;;;;;66.35;36.83;;;;;;;13.84;100.00;101062.25;5231456;28;20072;-79
2021/08/05 02:25:17;;;;;;;68.25;37.40;;;;;;;13.81;100.00;101064.47;5231635;28;20409;-78
2021/08/05 02:27:48;;;;;;;69.68;37.10;;;;;;;13.81;100.00;101070.72;5232733;28;20087;-79
2021/08/05 02:30:19;;;;;;;71.13;37.65;;;;;;;13.83;100.00;101063.28;5231571;28;20081;-78
2021/08/05 02:32:50;;;;;;;72.13;39.00;;;;;;;13.82;100.00;101060.75;5231528;28;20482;-78
2021/08/05 02:35:21;;;;;;;84.65;41.83;;;;;;;13.84;100.00;101064.94;5231106;28;20028;-78
2021/08/05 02:37:52;;;;;;;86.68;42.65;;;;;;;13.87;100.00;101067.28;5231770;28;20029;-79
2021/08/05 02:40:23;;;;;;;97.13;47.22;;;;;;;13.89;100.00;101064.41;5230476;28;20025;-78
2021/08/05 02:42:54;;;;;;;98.00;47.33;;;;;;;13.90;100.00;101071.47;5230205;28;20024;-79
2021/08/05 02:45:25;;;;;;;79.85;41.05;;;;;;;13.90;100.00;101069.59;5234045;28;20029;-78
2021/08/05 02:47:57;;;;;;;79.43;42.95;;;;;;;13.92;100.00;101064.03;5235434;28;20040;-78
2021/08/05 02:50:28;;;;;;;73.80;38.30;;;;;;;13.91;100.00;101065.91;5221597;28;20041;-79
2021/08/05 02:53:00;;;;;;;70.22;37.45;;;;;;;13.90;100.00;101068.75;5217939;28;20035;-78
2021/08/05 02:55:32;;;;;;;76.88;40.42;;;;;;;13.90;100.00;101064.19;5235133;28;20089;-78
2021/08/05 02:58:02;;;;;;;84.50;42.83;;;;;;;13.91;100.00;101060.50;5234766;28;20031;-79
2021/08/05 03:00:33;;;;;;;83.55;41.97;;;;;;;13.93;100.00;101063.00;5235222;28;20092;-78
2021/08/05 03:03:05;;;;;;;79.80;40.42;;;;;;;13.95;100.00;101064.50;5235432;28;20067;-78
2021/08/05 03:05:36;;;;;;;76.45;39.15;;;;;;;13.94;100.00;101062.81;5227737;28;20024;-80
2021/08/05 03:08:07;;;;;;;68.60;37.83;;;;;;;13.92;100.00;101054.09;5233036;28;20104;-78
2021/08/05 03:10:37;;;;;;;85.22;42.58;;;;;;;13.93;100.00;101046.84;5232795;28;20082;-80
2021/08/05 03:13:08;;;;;;;73.00;38.17;;;;;;;13.94;100.00;101053.91;5232389;28;20421;-80
2021/08/05 03:15:39;;;;;;;77.30;40.83;;;;;;;13.96;100.00;101043.78;5232723;28;20582;-79
2021/08/05 03:18:09;;;;;;;72.70;38.03;;;;;;;13.95;100.00;101042.06;5229085;28;20455;-79
2021/08/05 03:20:40;;;;;;;66.78;37.35;;;;;;;13.92;100.00;101046.00;5225027;28;20056;-79
2021/08/05 03:23:10;;;;;;;68.15;36.42;;;;;;;13.91;100.00;101047.03;5217861;28;20028;-78
2021/08/05 03:25:41;;;;;;;68.55;36.40;;;;;;;13.89;100.00;101037.41;5228111;28;20406;-79
2021/08/05 03:28:11;;;;;;;78.57;38.88;;;;;;;13.89;100.00;101046.34;5228294;28;20047;-79
2021/08/05 03:30:42;;;;;;;76.32;38.78;;;;;;;13.87;100.00;101037.63;5228097;28;20033;-79
2021/08/05 03:33:12;;;;;;;70.50;37.03;;;;;;;13.87;100.00;101032.22;5227683;28;20021;-79
2021/08/05 03:35:43;;;;;;;73.15;37.78;;;;;;;13.85;100.00;101036.94;5227657;28;20025;-78
2021/08/05 03:38:13;;;;;;;67.88;37.20;;;;;;;13.82;100.00;101039.19;5227745;28;20470;-79
2021/08/05 03:40:44;;;;;;;66.18;36.33;;;;;;;13.80;100.00;101036.66;5227375;28;20505;-79
2021/08/05 03:43:14;;;;;;;67.03;36.92;;;;;;;13.81;100.00;101026.72;5227469;28;20111;-80
2021/08/05 03:45:45;;;;;;;68.18;37.45;;;;;;;13.81;100.00;101027.56;5227297;28;20017;-80
2021/08/05 03:48:15;;;;;;;72.32;36.42;;;;;;;13.84;100.00;101023.66;5227291;28;20071;-79
2021/08/05 03:50:46;;;;;;;76.95;38.35;;;;;;;13.84;100.00;101016.41;5227043;28;20025;-79
2021/08/05 03:53:16;;;;;;;76.70;40.28;;;;;;;13.86;100.00;101019.78;5227180;28;20036;-79
2021/08/05 03:55:47;;;;;;;77.03;37.72;;;;;;;13.87;100.00;101016.03;5225547;28;20021;-80
2021/08/05 03:58:18;;;;;;;72.50;38.53;;;;;;;13.91;100.00;101019.22;5226816;28;20029;-79
2021/08/05 04:00:49;;;;;;;68.88;36.95;;;;;;;13.91;100.00;101022.75;5231746;28;20021;-80
2021/08/05 04:03:19;;;;;;;86.03;41.38;;;;;;;13.93;100.00;101012.59;5212831;28;20023;-80
2021/08/05 04:05:50;;;;;;;76.88;40.15;;;;;;;13.96;100.00;101016.81;5225418;28;20029;-80
2021/08/05 04:08:20;;;;;;;77.65;37.20;;;;;;;13.96;100.00;101014.94;5232629;28;20079;-79
2021/08/05 04:10:51;;;;;;;68.82;37.45;;;;;;;13.98;100.00;101018.28;5219268;28;20025;-79
2021/08/05 04:13:21;;;;;;;72.97;36.45;;;;;;;14.00;100.00;101010.00;5224748;28;20025;-80
2021/08/05 04:15:52;;;;;;;72.03;38.08;;;;;;;14.02;100.00;101012.53;5228179;28;20033;-79
2021/08/05 04:18:22;;;;;;;83.03;39.78;;;;;;;14.04;100.00;101010.47;5233308;28;20022;-79
2021/08/05 04:20:53;;;;;;;72.25;36.95;;;;;;;14.05;100.00;101012.97;5232569;28;20060;-79
2021/08/05 04:23:23;;;;;;;76.15;39.85;;;;;;;14.07;100.00;101005.56;5232635;28;20025;-79
2021/08/05 04:25:54;;;;;;;76.47;38.75;;;;;;;14.08;100.00;101006.38;5232444;28;20029;-79
2021/08/05 04:28:24;;;;;;;71.35;36.20;;;;;;;14.09;100.00;101010.75;5232448;28;20111;-79
2021/08/05 04:30:54;;;;;;;78.40;37.45;;;;;;;14.10;100.00;101013.25;5231960;28;20040;-80
2021/08/05 04:33:25;;;;;;;75.97;38.53;;;;;;;14.13;100.00;101015.59;5232569;28;20024;-79
2021/08/05 04:35:55;;;;;;;81.55;40.40;;;;;;;14.15;100.00;101015.41;5224065;28;20053;-80
2021/08/05 04:38:26;;;;;;;76.65;38.58;;;;;;;14.17;100.00;101013.38;5226639;28;20033;-79
2021/08/05 04:40:56;;;;;;;77.18;39.40;;;;;;;14.19;100.00;101011.31;5233766;28;20029;-79
2021/08/05 04:43:27;;;;;;;80.35;38.65;;;;;;;14.22;100.00;101019.88;5233310;28;20544;-80
2021/08/05 04:45:57;;;;;;;81.57;39.55;;;;;;;14.27;100.00;101021.19;5233210;28;20090;-79
2021/08/05 04:48:28;;;;;;;76.15;38.05;;;;;;;14.33;100.00;101017.75;5232257;28;20470;-79
2021/08/05 04:50:58;;;;;;;76.90;38.25;;;;;;;14.39;100.00;101020.53;5231416;28;20394;-79
2021/08/05 04:53:29;;;;;;;82.78;39.25;;;;;;;14.41;100.00;101021.19;5231821;28;20081;-79
2021/08/05 04:55:59;;;;;;;73.43;38.08;;;;;;;14.44;100.00;101028.06;5231519;28;20048;-79
2021/08/05 04:58:30;;;;;;;72.20;37.15;;;;;;;14.49;100.00;101018.41;5232041;28;20033;-79
2021/08/05 05:01:00;;;;;;;76.70;37.92;;;;;;;14.53;100.00;101018.03;5230520;28;20021;-79
2021/08/05 05:03:31;;;;;;;81.03;39.22;;;;;;;14.54;100.00;101017.00;5210882;28;20047;-79
2021/08/05 05:06:02;;;;;;;74.13;38.40;;;;;;;14.57;100.00;101022.06;5225662;28;20489;-78
2021/08/05 05:08:32;;;;;;;75.20;37.95;;;;;;;14.63;100.00;101024.00;5230940;28;20039;-79
2021/08/05 05:11:03;;;;;;;82.82;39.33;;;;;;;14.66;100.00;101020.91;5230790;28;20456;-79
2021/08/05 05:13:33;;;;;;;82.82;40.45;;;;;;;14.73;100.00;101021.81;5231117;28;20123;-79
2021/08/05 05:16:04;;;;;;;79.32;39.28;;;;;;;14.76;100.00;101016.91;5231067;28;20059;-80
2021/08/05 05:18:34;;;;;;;87.28;42.10;;;;;;;14.82;100.00;101018.00;5231311;28;20025;-80
2021/08/05 05:21:05;;;;;;;79.82;42.38;;;;;;;14.88;100.00;101009.13;5216970;28;20025;-79
2021/08/05 05:23:36;;;;;;;85.55;41.53;;;;;;;14.97;100.00;101009.84;5232563;28;20017;-79
2021/08/05 05:26:07;;;;;;;76.28;38.05;;;;;;;15.04;100.00;101008.06;5232766;28;20435;-79
2021/08/05 05:28:37;;;;;;;68.97;36.30;;;;;;;15.12;100.00;100999.00;5231992;28;20074;-79
2021/08/05 05:31:08;;;;;;;66.15;37.45;;;;;;;15.15;100.00;101002.13;5232368;28;20441;-79
2021/08/05 05:33:38;;;;;;;77.47;39.40;;;;;;;15.22;100.00;100996.81;5233994;28;20021;-80
2021/08/05 05:36:09;;;;;;;84.60;43.50;;;;;;;15.29;100.00;100995.00;5234311;28;20478;-78
2021/08/05 05:38:39;;;;;;;76.13;39.15;;;;;;;15.36;100.00;100998.63;5233939;28;20080;-78
2021/08/05 05:41:10;;;;;;;74.05;38.40;;;;;;;15.39;100.00;100992.81;5223847;28;20026;-78
2021/08/05 05:43:40;;;;;;;74.70;39.10;;;;;;;15.51;100.00;100990.41;5230283;28;20029;-79
2021/08/05 05:46:11;;;;;;;71.55;40.05;;;;;;;15.55;100.00;100987.13;5229771;28;20021;-80
2021/08/05 05:48:42;;;;;;;86.43;41.45;;;;;;;15.62;100.00;100987.19;5230052;28;20056;-78
2021/08/05 05:51:12;;;;;;;67.32;36.95;;;;;;;15.73;100.00;100986.69;5230383;28;20025;-81
2021/08/05 05:53:43;;;;;;;65.10;35.97;;;;;;;15.76;100.00;100986.28;5229901;28;20064;-78
2021/08/05 05:56:14;;;;;;;70.60;37.63;;;;;;;15.79;100.00;100994.00;5230854;28;20389;-78
2021/08/05 05:58:45;;;;;;;75.28;38.58;;;;;;;15.74;100.00;100984.81;5231460;28;20087;-79
2021/08/05 06:01:15;;;;;;;75.60;39.60;;;;;;;15.72;100.00;100990.41;5228940;28;20731;-78
2021/08/05 06:03:46;;;;;;;73.45;38.75;;;;;;;15.74;100.00;100988.34;5212942;28;20025;-78
2021/08/05 06:06:16;;;;;;;72.03;37.25;;;;;;;15.89;100.00;100993.66;5230864;28;20021;-80
2021/08/05 06:08:47;;;;;;;70.95;39.50;;;;;;;15.99;100.00;100987.91;5229790;28;20478;-79
2021/08/05 06:11:17;;;;;;;68.20;38.28;;;;;;;16.10;100.00;100992.75;5229849;28;20032;-81
2021/08/05 06:13:47;;;;;;;72.50;39.15;;;;;;;16.21;100.00;100994.88;5218476;28;20034;-80
2021/08/05 06:16:18;;;;;;;69.13;39.10;;;;;;;16.34;100.00;100987.88;5224538;28;20057;-80
2021/08/05 06:18:49;;;;;;;70.32;39.60;;;;;;;16.56;100.00;100997.56;5226256;28;20036;-80
2021/08/05 06:21:19;;;;;;;69.93;39.53;;;;;;;16.91;100.00;100995.63;5233123;28;20032;-80
2021/08/05 06:23:50;;;;;;;71.25;41.17;;;;;;;17.71;100.00;100979.44;5231207;28;20410;-79
2021/08/05 06:26:22;;;;;;;65.68;34.58;;;;;;;19.01;100.00;100977.59;5219540;28;20028;-80
2021/08/05 06:28:53;;;;;;;70.05;35.03;;;;;;;19.80;100.00;100976.19;5230824;28;20116;-79
2021/08/05 06:31:23;;;;;;;64.75;36.92;;;;;;;20.21;100.00;100980.16;5230766;28;20061;-81
2021/08/05 06:33:54;;;;;;;70.05;39.22;;;;;;;20.47;100.00;100981.78;5230802;28;20104;-80
2021/08/05 06:36:24;;;;;;;70.63;41.30;;;;;;;20.28;100.00;100986.38;5212348;28;20017;-80
2021/08/05 06:38:55;;;;;;;57.30;37.08;;;;;;;20.48;100.00;100986.16;5229950;28;20028;-78
2021/08/05 06:41:25;;;;;;;64.70;37.28;;;;;;;20.47;100.00;100981.78;5230052;28;20035;-81
2021/08/05 06:43:56;;;;;;;58.08;36.70;;;;;;;20.26;100.00;100983.88;5229365;28;20024;-80
2021/08/05 06:46:26;;;;;;;58.72;36.00;;;;;;;20.07;100.00;100988.47;5229082;28;20029;-80
2021/08/05 06:48:57;;;;;;;65.72;39.40;;;;;;;19.71;100.00;100981.09;5229176;28;20044;-80
2021/08/05 06:51:27;;;;;;;67.35;40.35;;;;;;;19.60;100.00;100982.66;5229361;28;20397;-80
2021/08/05 06:53:58;;;;;;;70.82;42.60;;;;;;;19.60;100.00;100976.38;5229160;28;20032;-79
2021/08/05 06:56:28;;;;;;;68.85;42.42;;;;;;;19.80;100.00;100984.34;5229439;28;20029;-80
2021/08/05 06:58:58;;;;;;;58.03;37.13;;;;;;;20.09;100.00;100980.94;5227736;28;20060;-80
2021/08/05 07:01:29;;;;;;;64.70;41.55;;;;;;;20.04;100.00;100980.78;5223822;28;20492;-79
2021/08/05 07:04:01;;;;;;;65.43;41.38;;;;;;;20.10;100.00;100977.13;5211877;28;20523;-78
2021/08/05 07:06:32;;;;;;;62.40;40.63;;;;;;;20.33;100.00;100976.47;5223233;28;20100;-79
2021/08/05 07:09:02;;;;;;;61.42;38.15;;;;;;;20.61;100.00;100977.84;5224066;28;20459;-80
2021/08/05 07:11:33;;;;;;;61.55;37.88;;;;;;;20.75;100.00;100973.03;5223198;28;20013;-79
2021/08/05 07:14:03;;;;;;;65.45;40.78;;;;;;;20.66;100.00;100972.53;5225075;28;20021;-79
2021/08/05 07:16:34;;;;;;;57.80;37.17;;;;;;;20.92;100.00;100983.06;5230275;28;20052;-80
2021/08/05 07:19:04;;;;;;;61.30;36.47;;;;;;;21.03;100.00;100975.97;5216250;28;20025;-78
2021/08/05 07:21:35;;;;;;;63.67;36.95;;;;;;;21.01;100.00;100971.84;5230784;28;20031;-80
2021/08/05 07:24:05;;;;;;;62.78;37.00;;;;;;;21.03;100.00;100965.06;5229877;28;20021;-78
2021/08/05 07:26:36;;;;;;;63.33;37.47;;;;;;;21.04;100.00;100974.13;5229842;28;20036;-79
2021/08/05 07:29:07;;;;;;;59.95;38.35;;;;;;;21.15;100.00;100970.59;5230769;28;20036;-79
2021/08/05 07:31:37;;;;;;;62.05;39.70;;;;;;;21.36;100.00;100969.22;5232651;28;20111;-80
2021/08/05 07:34:08;;;;;;;57.22;37.15;;;;;;;21.58;100.00;100970.31;5234968;28;20052;-79
2021/08/05 07:36:38;;;;;;;54.05;34.63;;;;;;;21.63;100.00;100966.88;5233642;28;20029;-79
2021/08/05 07:39:11;;;;;;;52.60;35.10;;;;;;;21.70;100.00;100973.06;5233236;28;20075;-80
2021/08/05 07:41:42;;;;;;;56.45;36.75;;;;;;;21.39;100.00;100960.59;5233642;28;20091;-78
2021/08/05 07:44:12;;;;;;;62.35;39.10;;;;;;;21.44;100.00;100969.72;5233582;28;20032;-80
2021/08/05 07:46:44;;;;;;;60.70;38.20;;;;;;;21.51;100.00;100966.88;5233007;28;20025;-80
2021/08/05 07:49:15;;;;;;;51.10;33.97;;;;;;;21.89;100.00;100962.88;5233558;28;20371;-80
2021/08/05 07:51:45;;;;;;;55.70;35.88;;;;;;;22.35;100.00;100963.91;5228559;28;20029;-80
2021/08/05 07:54:16;;;;;;;54.25;33.35;;;;;;;22.48;100.00;100958.97;5224681;28;20027;-80
2021/08/05 07:56:46;;;;;;;55.35;37.65;;;;;;;22.48;100.00;100964.44;5233503;28;20028;-79
2021/08/05 07:59:17;;;;;;;53.45;34.85;;;;;;;22.46;100.00;100965.78;5233786;28;20094;-80
2021/08/05 08:01:47;;;;;;;57.63;36.47;;;;;;;22.16;100.00;100961.31;5232659;28;20029;-80
2021/08/05 08:04:18;;;;;;;52.33;35.22;;;;;;;22.03;100.00;100966.16;5233622;28;20029;-80
2021/08/05 08:06:48;;;;;;;54.03;35.75;;;;;;;22.35;100.00;100964.72;5233650;28;20029;-80
2021/08/05 08:09:19;;;;;;;53.60;35.95;;;;;;;22.85;100.00;100961.34;5234330;28;20105;-80
2021/08/05 08:11:49;;;;;;;48.95;31.88;;;;;;;23.17;100.00;100950.72;5233771;28;20025;-80
2021/08/05 08:14:19;;;;;;;44.40;29.23;;;;;;;23.17;100.00;100961.69;5232998;28;20433;-80
2021/08/05 08:16:50;;;;;;;42.00;28.50;;;;;;;23.28;100.00;100954.47;5232148;28;20029;-79
2021/08/05 08:19:20;;;;;;;37.53;26.75;;;;;;;23.51;100.00;100956.22;5231921;28;20032;-80
2021/08/05 08:21:51;;;;;;;40.20;27.20;;;;;;;23.35;100.00;100946.94;5233552;28;20501;-80
2021/08/05 08:24:23;;;;;;;41.28;27.00;;;;;;;22.87;100.00;100945.50;5233937;28;20359;-80
2021/08/05 08:26:53;;;;;;;47.22;30.33;;;;;;;23.13;100.00;100943.25;5232826;28;20021;-81
2021/08/05 08:29:24;;;;;;;42.42;23.60;;;;;;;23.52;100.00;100942.28;5232151;28;20028;-81
2021/08/05 08:31:54;;;;;;;40.72;25.58;;;;;;;23.58;100.00;100942.38;5232464;28;20063;-81
2021/08/05 08:34:25;;;;;;;43.45;29.40;;;;;;;23.39;100.00;100942.59;5232501;28;20029;-81
2021/08/05 08:36:55;;;;;;;46.05;29.38;;;;;;;23.41;100.00;100945.94;5233143;28;20021;-80
2021/08/05 08:39:26;;;;;;;45.33;29.35;;;;;;;23.74;100.00;100950.56;5234075;28;20110;-82
2021/08/05 08:41:56;;;;;;;41.38;27.15;;;;;;;24.28;100.00;100945.31;5232794;28;20021;-81
2021/08/05 08:44:27;;;;;;;39.17;26.67;;;;;;;24.51;100.00;100944.25;5231108;28;20021;-83
2021/08/05 08:46:59;;;;;;;37.88;26.30;;;;;;;24.63;100.00;100937.78;5232437;28;20016;-80
2021/08/05 08:49:32;;;;;;;33.72;25.50;;;;;;;24.79;100.00;100945.91;5232795;28;20021;-82
2021/08/05 08:52:04;;;;;;;31.33;22.45;;;;;;;25.01;100.00;100945.88;5233099;28;20089;-80
2021/08/05 08:54:43;;;;;;;28.15;20.98;;;;;;;24.91;100.00;100947.72;5233298;28;20033;-81
2021/08/05 08:57:16;;;;;;;33.00;20.98;;;;;;;24.93;100.00;100937.28;5234282;28;20085;-81
2021/08/05 08:59:47;;;;;;;22.95;16.48;;;;;;;24.01;100.00;100934.28;5233514;28;20028;-81
2021/08/05 09:02:18;;;;;;;20.38;16.10;;;;;;;23.76;100.00;100937.47;5233552;28;20025;-81
2021/08/05 09:04:49;;;;;;;27.88;20.95;;;;;;;23.58;100.00;100924.03;5220027;28;20651;-81
2021/08/05 09:07:22;;;;;;;34.33;23.95;;;;;;;23.38;100.00;100919.06;5234226;28;20024;-82
2021/08/05 09:09:53;;;;;;;36.10;24.83;;;;;;;23.31;100.00;100917.56;5238136;28;20025;-81
2021/08/05 09:12:23;;;;;;;35.72;24.35;;;;;;;23.42;100.00;100922.97;5221787;28;20021;-79
2021/08/05 09:14:54;;;;;;;29.05;22.55;;;;;;;23.58;100.00;100920.47;5234177;28;20044;-80
2021/08/05 09:17:30;;;;;;;31.83;24.05;;;;;;;23.57;100.00;100916.88;5229240;28;20029;-81
2021/08/05 09:20:07;;;;;;;31.35;21.88;;;;;;;23.60;100.00;100910.09;5217353;28;20039;-81
2021/08/05 09:22:41;;;;;;;30.83;22.63;;;;;;;23.99;100.00;100917.25;5227110;28;20021;-83
2021/08/05 09:25:18;;;;;;;42.28;25.73;;;;;;;23.89;100.00;100917.09;5227055;28;20048;-80
2021/08/05 09:27:50;;;;;;;35.97;24.70;;;;;;;24.03;100.00;100917.56;5215590;28;20033;-80
2021/08/05 09:30:31;;;;;;;30.50;21.50;;;;;;;24.35;100.00;100905.91;5227497;28;20024;-80
2021/08/05 09:33:15;;;;;;;26.10;19.80;;;;;;;24.44;100.00;100907.13;5226101;28;20060;-82
2021/08/05 09:35:48;;;;;;;26.88;20.27;;;;;;;24.38;100.00;100899.94;5219697;28;20033;-81
2021/08/05 09:38:27;;;;;;;26.70;19.52;;;;;;;24.43;100.00;100898.09;5219509;28;20027;-81
2021/08/05 09:41:03;;;;;;;23.15;16.60;;;;;;;24.76;100.00;100896.25;5226440;28;20430;-81
2021/08/05 09:43:34;;;;;;;20.80;14.70;;;;;;;25.13;100.00;100901.00;5222072;28;20048;-81
2021/08/05 09:46:05;;;;;;;31.10;18.67;;;;;;;25.19;100.00;100892.53;5215454;28;20564;-81
2021/08/05 09:48:45;;;;;;;26.77;15.40;;;;;;;25.33;100.00;100887.44;5225009;28;20120;-80
2021/08/05 09:51:17;;;;;;;28.17;18.85;;;;;;;24.83;100.00;100891.38;5224772;28;20064;-80
2021/08/05 09:54:01;;;;;;;24.33;16.08;;;;;;;25.25;100.00;100883.28;5224106;28;20029;-81
2021/08/05 09:56:35;;;;;;;25.52;16.88;;;;;;;25.49;100.00;100891.94;5224605;28;20025;-82
2021/08/05 09:59:08;;;;;;;17.60;14.00;;;;;;;24.87;100.00;100884.28;5224905;28;20033;-81
2021/08/05 10:01:56;;;;;;;18.88;14.43;;;;;;;24.80;98.76;100886.41;5211329;28;20031;-81
2021/08/05 10:04:32;;;;;;;22.13;14.90;;;;;;;24.85;100.00;100880.97;5211423;28;20483;-80
2021/08/05 10:07:05;;;;;;;24.88;15.15;;;;;;;24.33;100.00;100881.50;5224369;28;20024;-80
2021/08/05 10:09:40;;;;;;;29.27;16.17;;;;;;;23.53;100.00;100880.97;5225459;28;20498;-81
2021/08/05 10:12:21;;;;;;;18.27;13.30;;;;;;;23.70;100.00;100883.72;5224789;28;20487;-81
2021/08/05 10:15:08;;;;;;;22.45;16.27;;;;;;;23.25;100.00;100873.72;5224552;28;20029;-80
2021/08/05 10:17:40;;;;;;;20.85;15.50;;;;;;;23.58;100.00;100869.25;5224316;28;20029;-81
2021/08/05 10:20:13;;;;;;;20.60;13.82;;;;;;;23.67;100.00;100870.53;5215736;28;20460;-81
2021/08/05 10:22:44;;;;;;;25.15;15.15;;;;;;;23.56;100.00;100882.38;5211090;28;20025;-80
2021/08/05 10:25:17;;;;;;;20.83;14.77;;;;;;;23.45;100.00;100869.63;5230810;28;20044;-82
2021/08/05 10:27:48;;;;;;;24.33;15.95;;;;;;;23.45;100.00;100869.63;5230197;28;20033;-78
2021/08/05 10:30:18;;;;;;;24.10;14.75;;;;;;;23.18;100.00;100866.72;5231364;28;20033;-81
2021/08/05 10:32:52;;;;;;;24.98;15.70;;;;;;;23.00;100.00;100867.81;5231818;28;20017;-80
2021/08/05 10:35:24;;;;;;;18.52;13.93;;;;;;;22.71;100.00;100865.09;5228016;28;20025;-81
2021/08/05 10:37:54;;;;;;;22.20;14.75;;;;;;;22.46;100.00;100873.66;5221868;28;20035;-81
2021/08/05 10:40:26;;;;;;;23.60;17.73;;;;;;;22.23;100.00;100877.28;5212195;28;20466;-80
2021/08/05 10:42:59;;;;;;;31.67;20.13;;;;;;;21.92;100.00;100867.63;5230850;28;20113;-80
2021/08/05 10:45:30;;;;;;;34.08;21.25;;;;;;;21.52;100.00;100861.25;5212435;28;20021;-81
2021/08/05 10:48:02;;;;;;;26.48;18.50;;;;;;;21.54;100.00;100856.41;5230349;28;20486;-81
2021/08/05 10:50:40;;;;;;;28.13;18.77;;;;;;;21.43;100.00;100855.31;5216526;28;20087;-80
2021/08/05 10:53:30;;;;;;;26.85;19.13;;;;;;;21.56;100.00;100854.25;5230363;28;20029;-80
2021/08/05 10:56:25;;;;;;;23.55;17.35;;;;;;;21.59;100.00;100853.81;5228923;28;20040;-80
2021/08/05 10:59:07;;;;;;;23.58;16.33;;;;;;;21.67;100.00;100848.78;5229437;28;20025;-79
2021/08/05 11:01:54;;;;;;;20.30;15.38;;;;;;;21.91;100.00;100841.38;5229169;28;20033;-81
2021/08/05 11:04:32;;;;;;;22.02;15.70;;;;;;;22.04;100.00;100834.81;5224368;28;20032;-80
2021/08/05 11:07:21;;;;;;;21.13;15.80;;;;;;;22.14;100.00;100836.94;5228008;28;20025;-80
2021/08/05 11:10:13;;;;;;;22.75;15.00;;;;;;;22.33;100.00;100841.16;5227893;28;20029;-80
2021/08/05 11:12:46;;;;;;;23.30;16.30;;;;;;;22.23;100.00;100836.31;5227770;28;20035;-79
2021/08/05 11:15:22;;;;;;;24.33;15.60;;;;;;;22.28;100.00;100835.59;5228218;28;20029;-81
2021/08/05 11:18:11;;;;;;;20.20;14.68;;;;;;;22.38;100.00;100835.78;5214602;28;20064;-80
2021/08/05 11:20:43;;;;;;;17.65;14.70;;;;;;;22.46;100.00;100829.94;5225696;28;20064;-80
2021/08/05 11:23:28;;;;;;;19.67;13.90;;;;;;;22.64;100.00;100839.81;5216871;28;20029;-80
2021/08/05 11:25:59;;;;;;;19.60;12.45;;;;;;;22.64;100.00;100826.16;5227875;28;20017;-80